Time;durP1;ratioP1;P1;durP2;ratioP2;P2;SDS_P1;SDS_P2;PMS_P1;PMS_P2;Temp;Humidity;BMP_temperature;BMP_pressure;BME280_temperature;BME280_humidity;BME280_pressure;Samples;Min_cycle;Max_cycle;Signal;HPM_P1;HPM_P2
2024/01/08 00:01:08;;;;;;;6.60;3.03;;;-0.40;99.90;;;;;;5021073;28;20115;-61
2024/01/08 00:03:38;;;;;;;6.85;3.45;;;-0.40;99.90;;;;;;5033663;28;20399;-61
2024/01/08 00:06:04;;;;;;;6.70;3.22;;;-0.40;99.90;;;;;;5015124;28;20061;-61
2024/01/08 00:08:29;;;;;;;6.95;3.53;;;-0.40;99.90;;;;;;5031872;28;20053;-61
2024/01/08 00:10:55;;;;;;;8.20;3.17;;;-0.40;99.90;;;;;;5031552;28;20046;-61
2024/01/08 00:13:21;;;;;;;8.60;3.60;;;-0.40;99.90;;;;;;5033499;28;20116;-61
2024/01/08 00:15:47;;;;;;;7.32;3.55;;;-0.40;99.90;;;;;;5033233;28;20045;-61
2024/01/08 00:18:12;;;;;;;7.70;3.15;;;-0.40;99.90;;;;;;5031438;28;20052;-61
2024/01/08 00:20:38;;;;;;;7.43;3.42;;;-0.40;99.90;;;;;;5031918;28;20201;-61
2024/01/08 00:23:04;;;;;;;10.60;4.00;;;-0.40;99.90;;;;;;5032445;28;20095;-61
2024/01/08 00:25:30;;;;;;;7.47;3.42;;;-0.40;99.90;;;;;;5034038;28;20482;-61
2024/01/08 00:27:56;;;;;;;9.85;3.60;;;-0.40;99.90;;;;;;5035783;28;20055;-61
2024/01/08 00:30:21;;;;;;;6.85;3.13;;;-0.40;99.90;;;;;;5046788;28;20094;-61
2024/01/08 00:32:47;;;;;;;8.88;3.50;;;-0.40;99.90;;;;;;5050850;28;20174;-61
2024/01/08 00:35:13;;;;;;;7.28;3.20;;;-0.40;99.90;;;;;;5035148;28;20397;-61
2024/01/08 00:37:41;;;;;;;6.70;3.72;;;-0.40;99.90;;;;;;5052808;28;20041;-61
2024/01/08 00:40:09;;;;;;;8.32;3.97;;;-0.40;99.90;;;;;;5034383;28;20371;-61
2024/01/08 00:42:35;;;;;;;8.13;3.80;;;-0.40;99.90;;;;;;5033213;28;20099;-61
2024/01/08 00:45:05;;;;;;;8.85;3.85;;;-0.40;99.90;;;;;;4998940;28;20175;-61
2024/01/08 00:47:30;;;;;;;9.13;3.63;;;-0.40;99.90;;;;;;5013865;28;20056;-61
2024/01/08 00:49:56;;;;;;;10.93;3.53;;;-0.40;99.90;;;;;;5023372;28;20045;-60
2024/01/08 00:52:22;;;;;;;7.70;3.67;;;-0.40;99.90;;;;;;5052440;28;20036;-61
2024/01/08 00:54:48;;;;;;;8.63;3.10;;;-0.40;99.90;;;;;;5008251;28;20041;-60
2024/01/08 00:57:13;;;;;;;8.05;2.88;;;-0.40;99.90;;;;;;5032394;28;20113;-61
2024/01/08 00:59:39;;;;;;;9.40;3.58;;;-0.40;99.90;;;;;;5013390;28;20041;-60
2024/01/08 01:02:05;;;;;;;8.48;3.88;;;-0.40;99.90;;;;;;5030580;28;20037;-61
2024/01/08 01:04:30;;;;;;;7.43;3.38;;;-0.40;99.90;;;;;;5033835;28;20045;-61
2024/01/08 01:06:56;;;;;;;6.95;3.20;;;-0.40;99.90;;;;;;5034762;28;20453;-61
2024/01/08 01:09:21;;;;;;;7.82;3.50;;;-0.40;99.90;;;;;;5051202;28;20073;-61
2024/01/08 01:11:47;;;;;;;7.15;3.13;;;-0.40;99.90;;;;;;5034280;28;20041;-61
2024/01/08 01:14:13;;;;;;;9.95;3.75;;;-0.40;99.90;;;;;;5016868;28;20048;-61
2024/01/08 01:16:38;;;;;;;8.73;3.40;;;-0.40;99.90;;;;;;5017679;28;20057;-61
2024/01/08 01:19:04;;;;;;;7.93;3.63;;;-0.30;99.90;;;;;;5033862;28;20068;-61
2024/01/08 01:21:30;;;;;;;7.03;3.47;;;-0.40;99.90;;;;;;5013501;28;20048;-61
2024/01/08 01:23:55;;;;;;;5.43;3.05;;;-0.40;99.90;;;;;;5016129;28;20378;-61
2024/01/08 01:26:21;;;;;;;7.30;3.38;;;-0.40;99.90;;;;;;5051882;28;20052;-61
2024/01/08 01:28:47;;;;;;;6.78;3.53;;;-0.40;99.90;;;;;;5033254;28;20041;-61
2024/01/08 01:31:13;;;;;;;8.15;3.22;;;-0.50;99.90;;;;;;5051979;28;20050;-60
2024/01/08 01:33:39;;;;;;;6.40;3.05;;;-0.50;99.90;;;;;;5034149;28;20048;-60
2024/01/08 01:36:08;;;;;;;7.82;3.50;;;-0.50;99.90;;;;;;5033549;28;20041;-60
2024/01/08 01:38:34;;;;;;;8.95;3.45;;;-0.60;99.90;;;;;;5033798;28;20040;-61
2024/01/08 01:41:00;;;;;;;8.45;3.50;;;-0.60;99.90;;;;;;5015847;28;20038;-61
2024/01/08 01:43:31;;;;;;;7.28;3.00;;;-0.70;99.90;;;;;;5029686;28;20475;-61
2024/01/08 01:46:30;;;;;;;6.80;2.80;;;-0.70;99.90;;;;;;5013881;28;20041;-61
2024/01/08 01:48:56;;;;;;;11.23;4.13;;;-0.80;99.90;;;;;;5015658;28;20519;-61
2024/01/08 01:51:22;;;;;;;10.05;3.15;;;-0.80;99.90;;;;;;5032861;28;20110;-61
2024/01/08 01:53:49;;;;;;;8.43;3.25;;;-0.80;99.90;;;;;;5050769;28;20045;-61
2024/01/08 01:56:15;;;;;;;7.88;3.65;;;-0.90;99.90;;;;;;5031401;28;20052;-61
2024/01/08 01:58:41;;;;;;;7.22;3.70;;;-0.90;99.90;;;;;;5012802;28;20449;-61
2024/01/08 02:01:06;;;;;;;6.35;2.90;;;-0.90;99.90;;;;;;5032596;28;20402;-61
2024/01/08 02:03:33;;;;;;;6.55;3.42;;;-1.00;99.90;;;;;;5050149;28;20108;-61
2024/01/08 02:05:59;;;;;;;7.43;3.03;;;-1.00;99.90;;;;;;5051349;28;20493;-61
2024/01/08 02:08:25;;;;;;;8.27;3.67;;;-1.00;99.90;;;;;;5033707;28;20056;-61
2024/01/08 02:10:52;;;;;;;7.88;3.47;;;-1.10;99.90;;;;;;5032677;28;20119;-61
2024/01/08 02:13:17;;;;;;;6.90;2.85;;;-1.10;99.90;;;;;;5049914;28;20038;-61
2024/01/08 02:15:43;;;;;;;8.25;3.40;;;-1.10;99.90;;;;;;5035544;28;20422;-61
2024/01/08 02:18:09;;;;;;;7.35;3.22;;;-1.10;99.90;;;;;;5016906;28;20120;-61
2024/01/08 02:20:34;;;;;;;7.25;3.40;;;-1.10;99.90;;;;;;5031517;28;20090;-61
2024/01/08 02:23:00;;;;;;;8.05;3.42;;;-1.10;99.90;;;;;;5054354;28;20090;-61
2024/01/08 02:25:26;;;;;;;7.88;3.72;;;-1.00;99.90;;;;;;5050620;28;20037;-61
2024/01/08 02:27:52;;;;;;;7.88;3.90;;;-1.00;99.90;;;;;;5055213;28;20081;-61
2024/01/08 02:30:18;;;;;;;8.13;3.75;;;-1.00;99.90;;;;;;5054906;28;20075;-61
2024/01/08 02:32:44;;;;;;;7.72;2.95;;;-1.00;99.90;;;;;;5022001;28;20099;-61
2024/01/08 02:35:09;;;;;;;10.15;3.88;;;-1.00;99.90;;;;;;5017221;28;20045;-61
2024/01/08 02:37:35;;;;;;;9.52;3.33;;;-1.00;99.90;;;;;;5017429;28;20049;-61
2024/01/08 02:40:01;;;;;;;11.23;4.18;;;-1.00;99.90;;;;;;5036382;28;20512;-61
2024/01/08 02:42:27;;;;;;;10.68;3.85;;;-0.90;99.90;;;;;;5020631;28;20151;-61
2024/01/08 02:44:53;;;;;;;9.57;3.63;;;-0.90;99.90;;;;;;5037125;28;20132;-61
2024/01/08 02:47:19;;;;;;;7.93;3.92;;;-0.90;99.90;;;;;;5053980;28;20049;-61
2024/01/08 02:49:44;;;;;;;6.60;3.70;;;-0.90;99.90;;;;;;5038502;28;20037;-61
2024/01/08 02:52:10;;;;;;;9.95;3.83;;;-0.80;99.90;;;;;;5017006;28;20383;-61
2024/01/08 02:54:36;;;;;;;6.65;3.60;;;-0.80;99.90;;;;;;5023244;28;20037;-61
2024/01/08 02:57:03;;;;;;;9.32;3.90;;;-0.80;99.90;;;;;;5051802;28;20037;-61
2024/01/08 02:59:29;;;;;;;8.60;3.83;;;-0.70;99.90;;;;;;5015794;28;20041;-61
2024/01/08 03:01:54;;;;;;;6.60;3.13;;;-0.70;99.90;;;;;;5016165;28;20444;-61
2024/01/08 03:04:20;;;;;;;8.70;3.85;;;-0.70;99.90;;;;;;5016959;28;20053;-61
2024/01/08 03:06:45;;;;;;;6.63;3.28;;;-0.70;99.90;;;;;;5033803;28;20469;-61
2024/01/08 03:09:11;;;;;;;6.50;3.22;;;-0.70;99.90;;;;;;5035848;28;20041;-61
2024/01/08 03:11:37;;;;;;;6.55;3.50;;;-0.70;99.90;;;;;;5053313;28;20500;-61
2024/01/08 03:14:02;;;;;;;7.50;3.40;;;-0.60;99.90;;;;;;5054058;28;20605;-61
2024/01/08 03:16:28;;;;;;;7.00;3.10;;;-0.60;99.90;;;;;;5036304;28;20430;-61
2024/01/08 03:18:54;;;;;;;8.23;3.70;;;-0.60;99.90;;;;;;5036342;28;20041;-61
2024/01/08 03:21:19;;;;;;;6.18;3.28;;;-0.60;99.90;;;;;;5018706;28;20119;-61
2024/01/08 03:23:45;;;;;;;7.32;3.65;;;-0.60;99.90;;;;;;5052982;28;20074;-61
2024/01/08 03:26:10;;;;;;;8.27;3.97;;;-0.50;99.90;;;;;;5050306;28;20038;-61
2024/01/08 03:28:36;;;;;;;17.90;9.70;;;-0.50;99.90;;;;;;4999359;28;20046;-61
2024/01/08 03:31:02;;;;;;;12.23;5.25;;;-0.50;99.90;;;;;;5032675;28;20056;-61
2024/01/08 03:33:28;;;;;;;55.10;24.67;;;-0.50;99.90;;;;;;5035873;28;20053;-61
2024/01/08 03:35:55;;;;;;;47.88;19.45;;;-0.50;99.90;;;;;;5053337;28;20045;-61
2024/01/08 03:38:20;;;;;;;72.97;33.13;;;-0.50;99.90;;;;;;5036050;28;20128;-61
2024/01/08 03:40:46;;;;;;;87.95;34.78;;;-0.50;99.90;;;;;;5022075;28;20112;-61
2024/01/08 03:43:12;;;;;;;25.20;11.23;;;-0.40;99.90;;;;;;5043434;28;20044;-61
2024/01/08 03:45:38;;;;;;;81.13;34.92;;;-0.50;99.90;;;;;;5019410;28;20052;-61
2024/01/08 03:48:04;;;;;;;97.40;39.00;;;-0.40;99.90;;;;;;5035594;28;20048;-61
2024/01/08 03:50:29;;;;;;;132.50;53.40;;;-0.40;99.90;;;;;;5041600;28;20451;-61
2024/01/08 03:52:55;;;;;;;74.50;34.30;;;-0.40;99.90;;;;;;5016108;28;20148;-61
2024/01/08 03:55:21;;;;;;;87.55;36.58;;;-0.40;99.90;;;;;;5046343;28;20044;-61
2024/01/08 03:57:46;;;;;;;92.13;36.80;;;-0.40;99.90;;;;;;5034914;28;20045;-61
2024/01/08 04:00:12;;;;;;;84.25;34.53;;;-0.40;99.90;;;;;;5027105;28;20041;-61
2024/01/08 04:02:40;;;;;;;145.88;52.78;;;-0.40;99.90;;;;;;5015762;28;20116;-61
2024/01/08 04:05:08;;;;;;;71.57;28.50;;;-0.40;99.90;;;;;;5011684;28;20521;-61
2024/01/08 04:07:33;;;;;;;97.75;37.38;;;-0.40;99.90;;;;;;5012459;28;20410;-61
2024/01/08 04:09:59;;;;;;;131.57;47.22;;;-0.40;99.90;;;;;;5014872;28;20061;-61
2024/01/08 04:12:25;;;;;;;60.15;27.42;;;-0.40;99.90;;;;;;5032189;28;20398;-61
2024/01/08 04:14:50;;;;;;;64.00;30.83;;;-0.40;99.90;;;;;;5032285;28;20429;-61
2024/01/08 04:17:16;;;;;;;81.43;35.22;;;-0.40;99.90;;;;;;5032409;28;20524;-61
2024/01/08 04:19:41;;;;;;;203.23;83.68;;;-0.30;99.90;;;;;;5029342;28;20136;-61
2024/01/08 04:22:07;;;;;;;74.60;28.77;;;-0.40;99.90;;;;;;5012761;28;20038;-61
2024/01/08 04:24:33;;;;;;;71.60;29.25;;;-0.30;99.90;;;;;;5017373;28;20037;-61
2024/01/08 04:26:58;;;;;;;101.47;40.80;;;-0.40;99.90;;;;;;5032353;28;20375;-61
2024/01/08 04:29:24;;;;;;;193.75;75.55;;;-0.40;99.90;;;;;;5028309;28;20479;-61
2024/01/08 04:31:50;;;;;;;108.88;43.35;;;-0.30;99.90;;;;;;5011180;28;20117;-61
2024/01/08 04:34:15;;;;;;;80.82;35.65;;;-0.40;99.90;;;;;;4995385;28;20092;-61
2024/01/08 04:36:44;;;;;;;45.25;20.40;;;-0.40;99.90;;;;;;5013129;28;20046;-61
2024/01/08 04:39:10;;;;;;;61.28;26.38;;;-0.40;99.90;;;;;;5010863;28;20034;-61
2024/01/08 04:41:36;;;;;;;81.93;33.53;;;-0.40;99.90;;;;;;5011902;28;20088;-61
2024/01/08 04:44:02;;;;;;;45.05;19.60;;;-0.30;99.90;;;;;;5012348;28;20038;-61
2024/01/08 04:46:27;;;;;;;39.47;18.45;;;-0.40;99.90;;;;;;4994384;28;20053;-61
2024/01/08 04:48:53;;;;;;;19.52;9.55;;;-0.40;99.90;;;;;;5011714;28;20053;-61
2024/01/08 04:51:22;;;;;;;35.97;19.65;;;-0.40;99.90;;;;;;5012985;28;20044;-61
2024/01/08 04:53:49;;;;;;;16.90;10.13;;;-0.30;99.90;;;;;;5012011;28;20038;-61
2024/01/08 04:56:21;;;;;;;16.95;9.50;;;-0.40;99.90;;;;;;5031200;28;20048;-61
2024/01/08 04:58:47;;;;;;;12.48;6.28;;;-0.40;99.90;;;;;;5019093;28;20134;-61
2024/01/08 05:01:13;;;;;;;9.90;4.22;;;-0.40;99.90;;;;;;5008674;28;20034;-61
2024/01/08 05:03:38;;;;;;;8.25;3.92;;;-0.30;99.90;;;;;;5012662;28;20033;-61
2024/01/08 05:06:05;;;;;;;13.23;4.63;;;-0.30;99.90;;;;;;5027280;28;20064;-61
2024/01/08 05:08:31;;;;;;;14.80;6.00;;;-0.30;99.90;;;;;;5013403;28;20088;-61
2024/01/08 05:10:56;;;;;;;11.30;6.13;;;-0.40;99.90;;;;;;5029744;28;20076;-61
2024/01/08 05:13:22;;;;;;;8.68;4.15;;;-0.40;99.90;;;;;;5033588;28;20045;-61
2024/01/08 05:15:47;;;;;;;13.05;6.00;;;-0.40;99.90;;;;;;5034226;28;20056;-62
2024/01/08 05:18:13;;;;;;;6.57;2.88;;;-0.40;99.90;;;;;;5049433;28;20044;-62
2024/01/08 05:20:39;;;;;;;9.50;4.88;;;-0.40;99.90;;;;;;5020676;28;20050;-62
2024/01/08 05:23:04;;;;;;;10.48;4.57;;;-0.40;99.90;;;;;;5032128;28;20399;-62
2024/01/08 05:25:34;;;;;;;10.95;5.60;;;-0.40;99.90;;;;;;5047917;28;20045;-62
2024/01/08 05:27:59;;;;;;;25.30;12.15;;;-0.40;99.90;;;;;;5033534;28;20077;-62
2024/01/08 05:30:25;;;;;;;17.90;8.02;;;-0.40;99.90;;;;;;5023865;28;20076;-62
2024/01/08 05:32:53;;;;;;;10.68;4.55;;;-0.50;99.90;;;;;;5014356;28;20564;-62
2024/01/08 05:35:18;;;;;;;7.50;4.40;;;-0.50;99.90;;;;;;5030974;28;20057;-62
2024/01/08 05:37:44;;;;;;;8.20;3.53;;;-0.50;99.90;;;;;;5014778;28;20045;-62
2024/01/08 05:40:10;;;;;;;9.82;5.18;;;-0.50;99.90;;;;;;5025825;28;20048;-62
2024/01/08 05:42:37;;;;;;;9.10;4.00;;;-0.50;99.90;;;;;;5013381;28;20038;-62
2024/01/08 05:45:03;;;;;;;8.27;3.88;;;-0.50;99.90;;;;;;5023769;28;20452;-62
2024/01/08 05:47:29;;;;;;;7.47;2.85;;;-0.50;99.90;;;;;;5031351;28;20124;-62
2024/01/08 05:49:54;;;;;;;7.05;3.03;;;-0.60;99.90;;;;;;5045854;28;20047;-62
2024/01/08 05:52:21;;;;;;;7.15;3.10;;;-0.60;99.90;;;;;;5033628;28;20045;-62
2024/01/08 05:54:46;;;;;;;11.48;3.90;;;-0.70;99.90;;;;;;5018626;28;20095;-62
2024/01/08 05:57:12;;;;;;;8.70;4.00;;;-0.70;99.90;;;;;;5029700;28;20037;-62
2024/01/08 05:59:39;;;;;;;9.32;4.05;;;-0.80;99.90;;;;;;5033075;28;20033;-62
2024/01/08 06:02:04;;;;;;;7.95;3.90;;;-0.80;99.90;;;;;;5051531;28;20540;-62
2024/01/08 06:04:30;;;;;;;7.60;4.63;;;-0.80;99.90;;;;;;5050220;28;20032;-62
2024/01/08 06:06:56;;;;;;;10.93;6.32;;;-0.90;99.90;;;;;;5033999;28;20118;-62
2024/01/08 06:09:21;;;;;;;7.75;3.95;;;-0.90;99.90;;;;;;5033430;28;20053;-62
2024/01/08 06:11:47;;;;;;;29.20;13.82;;;-1.00;99.90;;;;;;5050569;28;20049;-62
2024/01/08 06:14:13;;;;;;;25.80;12.63;;;-1.00;99.90;;;;;;5017317;28;20041;-62
2024/01/08 06:16:38;;;;;;;38.65;14.75;;;-1.00;99.90;;;;;;5032597;28;20132;-62
2024/01/08 06:19:04;;;;;;;19.83;8.10;;;-1.00;99.90;;;;;;5026288;28;20041;-62
2024/01/08 06:21:30;;;;;;;32.25;14.27;;;-1.00;99.90;;;;;;5013478;28;20402;-62
2024/01/08 06:23:56;;;;;;;24.15;11.93;;;-1.10;99.90;;;;;;5013175;28;20493;-62
2024/01/08 06:26:21;;;;;;;47.95;21.52;;;-1.00;99.90;;;;;;5013864;28;20058;-62
2024/01/08 06:28:47;;;;;;;17.67;6.40;;;-1.10;99.90;;;;;;5013868;28;20041;-62
2024/01/08 06:31:13;;;;;;;23.00;9.27;;;-1.10;99.90;;;;;;5019789;28;20049;-62
2024/01/08 06:33:39;;;;;;;10.52;4.93;;;-1.10;99.90;;;;;;5029938;28;20051;-62
2024/01/08 06:36:05;;;;;;;30.77;13.93;;;-1.10;99.90;;;;;;5013715;28;20124;-62
2024/01/08 06:38:30;;;;;;;73.60;31.88;;;-1.10;99.90;;;;;;5031837;28;20378;-62
2024/01/08 06:40:56;;;;;;;19.38;7.32;;;-1.10;99.90;;;;;;5024526;28;20041;-62
2024/01/08 06:43:21;;;;;;;21.45;9.32;;;-1.20;99.90;;;;;;5029903;28;20128;-62
2024/01/08 06:45:49;;;;;;;13.23;5.20;;;-1.20;99.90;;;;;;5029434;28;20056;-62
2024/01/08 06:48:14;;;;;;;49.05;19.83;;;-1.20;99.90;;;;;;5014455;28;20053;-62
2024/01/08 06:50:40;;;;;;;34.72;16.67;;;-1.20;99.90;;;;;;5026515;28;20041;-62
2024/01/08 06:53:06;;;;;;;17.67;7.60;;;-1.20;99.90;;;;;;4996427;28;20067;-62
2024/01/08 06:55:31;;;;;;;19.90;10.00;;;-1.20;99.90;;;;;;5029397;28;20041;-62
2024/01/08 06:57:57;;;;;;;9.52;5.38;;;-1.30;99.90;;;;;;5032065;28;20041;-62
2024/01/08 07:00:26;;;;;;;9.95;4.70;;;-1.30;99.90;;;;;;5032376;28;20033;-62
2024/01/08 07:02:51;;;;;;;7.78;4.13;;;-1.30;99.90;;;;;;5034833;28;20125;-62
2024/01/08 07:05:18;;;;;;;10.60;5.90;;;-1.30;99.90;;;;;;4992523;28;20137;-62
2024/01/08 07:07:44;;;;;;;16.13;7.25;;;-1.30;99.90;;;;;;5016132;28;20041;-62
2024/01/08 07:10:10;;;;;;;32.80;22.23;;;-1.40;99.90;;;;;;5015005;28;20578;-63
2024/01/08 07:12:36;;;;;;;8.25;5.75;;;-1.30;99.90;;;;;;4997149;28;20095;-62
2024/01/08 07:15:04;;;;;;;9.30;4.00;;;-1.40;99.90;;;;;;5006219;28;20054;-62
2024/01/08 07:17:29;;;;;;;10.75;4.75;;;-1.40;99.90;;;;;;5014739;28;20426;-62
2024/01/08 07:19:55;;;;;;;13.88;10.05;;;-1.40;99.90;;;;;;5027048;28;20034;-62
2024/01/08 07:22:22;;;;;;;10.25;6.50;;;-1.30;99.90;;;;;;5033124;28;20038;-62
2024/01/08 07:24:48;;;;;;;8.80;3.60;;;-1.40;99.90;;;;;;5001947;28;20109;-62
2024/01/08 07:27:13;;;;;;;6.25;3.20;;;-1.30;99.90;;;;;;4996122;28;20149;-62
2024/01/08 07:29:39;;;;;;;8.00;3.92;;;-1.40;99.90;;;;;;4997164;28;20054;-62
2024/01/08 07:32:05;;;;;;;9.93;3.97;;;-1.30;99.90;;;;;;5000003;28;20042;-62
2024/01/08 07:34:31;;;;;;;4.60;2.70;;;-1.30;99.90;;;;;;5015426;28;20049;-62
2024/01/08 07:36:56;;;;;;;7.15;3.05;;;-1.30;99.90;;;;;;5016694;28;20115;-62
2024/01/08 07:39:23;;;;;;;7.43;3.20;;;-1.30;99.90;;;;;;5016191;28;20073;-62
2024/01/08 07:41:49;;;;;;;8.15;3.45;;;-1.30;99.90;;;;;;5002136;28;20073;-62
2024/01/08 07:44:15;;;;;;;8.98;6.55;;;-1.30;99.90;;;;;;4996656;28;20117;-62
2024/01/08 07:46:42;;;;;;;12.82;5.38;;;-1.30;99.90;;;;;;4998205;28;20108;-62
2024/01/08 07:49:09;;;;;;;9.05;3.80;;;-1.30;99.90;;;;;;5023405;28;20111;-62
2024/01/08 07:51:34;;;;;;;8.57;3.10;;;-1.30;99.90;;;;;;5033214;28;20124;-62
2024/01/08 07:54:00;;;;;;;7.82;3.15;;;-1.30;99.90;;;;;;5007114;28;20120;-62
2024/01/08 07:56:26;;;;;;;33.55;18.20;;;-1.30;99.90;;;;;;4998992;28;20049;-62
2024/01/08 07:58:53;;;;;;;83.10;37.30;;;-1.30;99.90;;;;;;4996464;28;20038;-62
2024/01/08 08:01:18;;;;;;;41.03;20.70;;;-1.30;99.90;;;;;;5007912;28;20049;-62
2024/01/08 08:03:44;;;;;;;17.20;9.02;;;-1.20;99.90;;;;;;5014250;28;20036;-61
2024/01/08 08:06:10;;;;;;;11.95;4.93;;;-1.20;99.90;;;;;;5022659;28;20092;-62
2024/01/08 08:08:36;;;;;;;7.88;2.80;;;-1.10;99.90;;;;;;5050230;28;20084;-61
2024/01/08 08:11:03;;;;;;;8.48;3.53;;;-1.10;99.90;;;;;;5030886;28;20435;-62
2024/01/08 08:13:29;;;;;;;11.02;3.60;;;-1.10;99.90;;;;;;5032818;28;20124;-61
2024/01/08 08:15:55;;;;;;;7.38;3.63;;;-1.00;99.90;;;;;;5032799;28;20139;-62
2024/01/08 08:18:20;;;;;;;10.18;3.72;;;-1.00;99.90;;;;;;5030875;28;20041;-61
2024/01/08 08:20:46;;;;;;;9.05;3.78;;;-0.90;99.90;;;;;;5033269;28;20052;-61
2024/01/08 08:23:12;;;;;;;10.88;2.65;;;-0.90;99.90;;;;;;5034850;28;20068;-61
2024/01/08 08:25:38;;;;;;;9.00;3.40;;;-0.80;99.90;;;;;;5032576;28;20037;-61
2024/01/08 08:28:05;;;;;;;6.50;2.70;;;-0.80;99.90;;;;;;5038872;28;20478;-62
2024/01/08 08:30:31;;;;;;;7.47;3.15;;;-0.70;99.90;;;;;;5018429;28;20050;-62
2024/01/08 08:32:58;;;;;;;5.70;2.53;;;-0.70;99.90;;;;;;5011486;28;20505;-61
2024/01/08 08:35:25;;;;;;;7.88;3.25;;;-0.70;99.90;;;;;;5015484;28;20152;-62
2024/01/08 08:37:51;;;;;;;6.15;2.55;;;-0.70;99.90;;;;;;5019019;28;20063;-62
2024/01/08 08:40:17;;;;;;;7.88;3.70;;;-0.60;99.90;;;;;;5039912;28;20033;-62
2024/01/08 08:42:43;;;;;;;9.70;3.53;;;-0.60;99.90;;;;;;5026092;28;20134;-62
2024/01/08 08:45:09;;;;;;;8.45;4.03;;;-0.60;99.90;;;;;;5024315;28;20460;-61
2024/01/08 08:47:35;;;;;;;5.15;2.20;;;-0.50;99.90;;;;;;5022087;28;20033;-62
2024/01/08 08:50:00;;;;;;;10.38;2.95;;;-0.50;99.90;;;;;;5030561;28;20132;-61
2024/01/08 08:52:26;;;;;;;7.03;2.95;;;-0.50;99.90;;;;;;5038961;28;20076;-62
2024/01/08 08:54:52;;;;;;;11.65;5.25;;;-0.40;99.90;;;;;;5031981;28;20433;-61
2024/01/08 08:57:18;;;;;;;17.15;7.55;;;-0.40;99.90;;;;;;5021147;28;20095;-62
2024/01/08 08:59:43;;;;;;;13.82;4.45;;;-0.40;99.90;;;;;;5031058;28;20128;-62
2024/01/08 09:02:09;;;;;;;8.48;2.85;;;-0.30;99.90;;;;;;5031590;28;20129;-62
2024/01/08 09:04:35;;;;;;;7.40;3.13;;;-0.30;99.90;;;;;;5018724;28;20041;-62
2024/01/08 09:07:01;;;;;;;8.75;3.13;;;-0.20;99.90;;;;;;5030893;28;20088;-62
2024/01/08 09:09:26;;;;;;;5.65;2.25;;;-0.20;99.90;;;;;;5029725;28;20036;-62
2024/01/08 09:11:52;;;;;;;5.68;2.35;;;-0.10;99.90;;;;;;5041200;28;20044;-62
2024/01/08 09:14:20;;;;;;;5.72;2.30;;;-0.10;99.90;;;;;;5029650;28;20055;-63
2024/01/08 09:16:46;;;;;;;6.55;2.53;;;0.00;99.90;;;;;;5014973;28;20045;-66
2024/01/08 09:19:11;;;;;;;5.55;2.35;;;0.00;99.90;;;;;;5030712;28;20048;-66
2024/01/08 09:21:37;;;;;;;4.55;1.95;;;0.00;99.90;;;;;;5040625;28;20033;-66
2024/01/08 09:24:05;;;;;;;4.72;1.98;;;0.00;99.90;;;;;;5028513;28;20059;-66
2024/01/08 09:26:30;;;;;;;7.25;2.85;;;0.10;99.90;;;;;;5018339;28;20095;-66
2024/01/08 09:28:56;;;;;;;5.43;2.63;;;0.10;99.90;;;;;;5025066;28;20088;-66
2024/01/08 09:31:22;;;;;;;7.93;2.22;;;0.10;99.90;;;;;;5021476;28;20040;-66
2024/01/08 09:33:47;;;;;;;5.07;2.58;;;0.20;99.90;;;;;;5037538;28;20071;-66
2024/01/08 09:36:13;;;;;;;8.23;2.35;;;0.20;99.90;;;;;;5047108;28;20068;-66
2024/01/08 09:38:39;;;;;;;4.35;1.98;;;0.20;99.90;;;;;;5017202;28;20064;-66
2024/01/08 09:41:04;;;;;;;17.83;7.28;;;0.20;99.90;;;;;;5028002;28;20126;-66
2024/01/08 09:43:35;;;;;;;44.33;17.98;;;0.30;99.90;;;;;;5024985;28;20047;-66
2024/01/08 09:46:09;;;;;;;72.00;31.52;;;0.30;99.90;;;;;;5021237;28;20048;-66
2024/01/08 09:48:35;;;;;;;11.57;3.85;;;0.30;99.90;;;;;;5045796;28;20041;-66
2024/01/08 09:51:03;;;;;;;6.40;3.20;;;0.30;99.90;;;;;;5024171;28;20055;-66
2024/01/08 09:53:29;;;;;;;5.32;1.92;;;0.30;99.90;;;;;;5013520;28;20075;-66
2024/01/08 09:55:55;;;;;;;5.53;1.98;;;0.40;99.90;;;;;;5015875;28;20382;-66
2024/01/08 09:58:21;;;;;;;5.88;2.00;;;0.40;99.90;;;;;;5025332;28;20055;-66
2024/01/08 10:00:47;;;;;;;5.95;3.25;;;0.40;99.90;;;;;;5011680;28;20034;-65
2024/01/08 10:03:13;;;;;;;5.82;2.35;;;0.40;99.90;;;;;;5026043;28;20044;-65
2024/01/08 10:05:39;;;;;;;4.97;2.03;;;0.40;99.90;;;;;;5026138;28;20143;-66
2024/01/08 10:08:05;;;;;;;12.52;4.00;;;0.40;99.90;;;;;;5022200;28;20049;-66
2024/01/08 10:10:34;;;;;;;8.10;2.22;;;0.40;99.90;;;;;;5028966;28;20060;-66
2024/01/08 10:13:01;;;;;;;10.38;4.78;;;0.50;99.90;;;;;;5045870;28;20611;-66
2024/01/08 10:15:27;;;;;;;9.57;3.30;;;0.50;99.90;;;;;;5031448;28;20490;-66
2024/01/08 10:18:00;;;;;;;5.43;2.55;;;0.50;99.90;;;;;;5030529;28;20044;-66
2024/01/08 10:20:25;;;;;;;5.65;2.20;;;0.50;99.90;;;;;;5031629;28;20095;-66
2024/01/08 10:23:05;;;;;;;5.95;2.78;;;0.50;99.90;;;;;;5013031;28;20049;-65
2024/01/08 10:25:31;;;;;;;6.20;3.13;;;0.50;99.90;;;;;;5048017;28;20074;-67
2024/01/08 10:27:57;;;;;;;6.75;2.85;;;0.50;99.90;;;;;;5031169;28;20141;-66
2024/01/08 10:30:24;;;;;;;5.70;2.80;;;0.50;99.90;;;;;;5047144;28;20524;-65
2024/01/08 10:32:50;;;;;;;6.60;2.28;;;0.50;99.90;;;;;;5033014;28;20052;-66
2024/01/08 10:35:16;;;;;;;6.28;3.20;;;0.50;99.90;;;;;;5049992;28;20386;-67
2024/01/08 10:37:43;;;;;;;9.60;4.32;;;0.50;99.90;;;;;;5036565;28;20455;-67
2024/01/08 10:40:12;;;;;;;10.50;3.40;;;0.50;99.90;;;;;;5002207;28;20045;-66
2024/01/08 10:42:40;;;;;;;10.07;5.10;;;0.50;99.90;;;;;;5020760;28;20037;-71
2024/01/08 10:45:07;;;;;;;16.27;6.18;;;0.50;99.90;;;;;;5036456;28;20684;-64
2024/01/08 10:47:35;;;;;;;12.32;6.72;;;0.50;99.90;;;;;;5037594;28;20045;-65
2024/01/08 10:50:05;;;;;;;10.88;5.60;;;0.50;99.90;;;;;;5030977;28;20045;-63
2024/01/08 10:52:33;;;;;;;9.90;5.25;;;0.50;99.90;;;;;;5030751;28;20654;-66
2024/01/08 10:55:00;;;;;;;14.85;7.13;;;0.50;99.90;;;;;;5055283;28;20045;-66
2024/01/08 10:57:58;;;;;;;15.65;8.40;;;0.60;99.90;;;;;;5037333;28;20214;-66
2024/01/08 11:00:24;;;;;;;18.45;9.13;;;0.60;99.90;;;;;;5036869;28;20033;-66
2024/01/08 11:02:51;;;;;;;39.20;16.48;;;0.60;99.90;;;;;;5036834;28;20056;-66
2024/01/08 11:05:20;;;;;;;18.25;10.50;;;0.60;99.90;;;;;;5035887;28;20126;-66
2024/01/08 11:07:49;;;;;;;10.10;6.10;;;0.70;99.90;;;;;;5036811;28;20045;-66
2024/01/08 11:10:16;;;;;;;7.57;3.35;;;0.70;99.90;;;;;;5036668;28;20047;-66
2024/01/08 11:12:50;;;;;;;4.90;2.15;;;0.70;99.90;;;;;;5036098;28;20081;-66
2024/01/08 11:15:17;;;;;;;7.45;3.17;;;0.80;99.90;;;;;;5036736;28;20049;-65
2024/01/08 11:17:54;;;;;;;7.10;2.38;;;0.80;99.90;;;;;;5054621;28;20041;-66
2024/01/08 11:20:45;;;;;;;6.25;2.40;;;0.80;99.90;;;;;;5035947;28;20486;-66
2024/01/08 11:23:37;;;;;;;5.10;2.10;;;0.80;99.90;;;;;;5036556;28;20079;-66
2024/01/08 11:26:04;;;;;;;11.95;5.28;;;0.80;99.90;;;;;;5036447;28;20110;-66
2024/01/08 11:28:34;;;;;;;14.98;8.48;;;0.90;99.90;;;;;;5035923;28;20078;-66
2024/01/08 11:31:24;;;;;;;7.25;3.67;;;0.90;99.90;;;;;;5036840;28;20048;-66
2024/01/08 11:34:28;;;;;;;7.45;3.70;;;0.90;99.90;;;;;;5036142;28;20064;-66
2024/01/08 11:37:25;;;;;;;7.25;3.70;;;0.90;99.90;;;;;;5054216;28;20175;-66
2024/01/08 11:39:53;;;;;;;6.75;3.47;;;0.80;99.90;;;;;;5054244;28;20055;-66
2024/01/08 11:42:19;;;;;;;5.95;2.58;;;0.80;99.90;;;;;;5035779;28;20049;-66
2024/01/08 11:44:45;;;;;;;6.13;2.63;;;0.80;99.90;;;;;;5035312;28;20543;-66
2024/01/08 11:47:10;;;;;;;7.65;2.45;;;0.80;99.90;;;;;;5052161;28;20053;-66
2024/01/08 11:49:36;;;;;;;6.15;2.45;;;0.80;99.90;;;;;;5052612;28;20110;-66
2024/01/08 11:52:05;;;;;;;5.85;2.42;;;0.80;99.90;;;;;;5053034;28;20056;-66
2024/01/08 11:54:30;;;;;;;5.15;2.30;;;0.80;99.90;;;;;;5034847;28;20060;-66
2024/01/08 11:56:57;;;;;;;12.07;2.55;;;0.80;99.90;;;;;;5054077;28;20398;-65
2024/01/08 11:59:33;;;;;;;6.50;2.33;;;0.80;99.90;;;;;;5035872;28;20037;-66
2024/01/08 12:02:19;;;;;;;8.05;3.50;;;0.80;99.90;;;;;;5053028;28;20441;-66
2024/01/08 12:04:51;;;;;;;;;;;0.80;99.90;;;;;;5054066;28;20102;-66
2024/01/08 12:07:17;;;;;;;7.18;3.22;;;0.80;99.90;;;;;;5035673;28;19924;-66
2024/01/08 12:09:43;;;;;;;9.13;4.97;;;0.90;99.90;;;;;;5034668;28;20045;-66
2024/01/08 12:12:09;;;;;;;7.97;3.72;;;0.90;99.90;;;;;;5053467;28;20416;-65
2024/01/08 12:14:36;;;;;;;7.43;3.10;;;0.90;99.90;;;;;;5035377;28;20498;-65
2024/01/08 12:17:03;;;;;;;7.50;4.25;;;1.00;99.90;;;;;;5034992;28;20083;-65
2024/01/08 12:19:44;;;;;;;8.00;4.35;;;0.90;99.90;;;;;;5035694;28;20440;-66
2024/01/08 12:22:14;;;;;;;8.60;4.07;;;1.00;99.90;;;;;;5035332;28;20473;-65
2024/01/08 12:24:45;;;;;;;7.80;4.78;;;0.90;99.90;;;;;;5034730;28;20099;-65
2024/01/08 12:27:14;;;;;;;5.55;2.75;;;0.90;99.90;;;;;;5035664;28;20500;-65
2024/01/08 12:29:40;;;;;;;9.07;4.90;;;0.90;99.90;;;;;;5034422;28;20099;-65
2024/01/08 12:32:10;;;;;;;14.68;8.45;;;0.90;99.90;;;;;;5035821;28;20462;-65
2024/01/08 12:34:37;;;;;;;22.23;9.85;;;0.90;99.90;;;;;;5035202;28;20041;-65
2024/01/08 12:37:04;;;;;;;13.20;5.47;;;0.80;99.90;;;;;;5052394;28;20041;-65
2024/01/08 12:39:31;;;;;;;10.07;5.00;;;0.80;99.90;;;;;;5034930;28;20045;-65
2024/01/08 12:45:44;;;;;;;8.35;3.33;;;0.70;99.90;;;;;;5039098;28;20044;-64